Texas Creek, Colorado
Current Conditions -  °F | °C
As of 6:25 AM on Wednesday 26 Nov 2014 (Local Time) from K1V6 Reporting Station
Overcast Overcast  
Wind Chill: 26°   Ceiling: 2000
Heat Index: 32°   Visibility: 10mi
Dew Point: 27°   Wind: 6mph
Humidity: 80%   Direction: 10°N
Pressure: 30.22"   Gusts: NA
Location:  38.3575°N, 105.49°W
Report Text: K1V6 261325Z AUTO 01005KT 10SM BKN020 OVC026 00/M03 A3022 RMK AO2
Loading
Personal Weather Stations






























Interactive Weather Map New forecast layout! Learn more

10-Day Weather Forecast

Advertisements
Track Severe Weather on mobile